createdAt,value
2022-12-03T00:02:51.293Z,101080.84
2022-12-03T00:07:52.328Z,101081.56
2022-12-03T00:12:54.524Z,101068.81
2022-12-03T00:17:55.315Z,101071.38
2022-12-03T00:22:56.138Z,101066.75
2022-12-03T00:27:58.289Z,101060.97
2022-12-03T00:32:59.094Z,101066.66
2022-12-03T00:37:59.973Z,101072.56
2022-12-03T00:43:02.128Z,101056.53
2022-12-03T00:48:03.089Z,101060.91
2022-12-03T00:53:03.957Z,101065.88
2022-12-03T00:58:08.343Z,101064.19
2022-12-03T01:03:09.146Z,101059.97
2022-12-03T01:08:10.088Z,101065.09
2022-12-03T01:13:12.379Z,101062.59
2022-12-03T01:18:13.163Z,101061.56
2022-12-03T01:23:14.008Z,101054.81
2022-12-03T01:28:16.246Z,101053.22
2022-12-03T01:33:17.080Z,101046.19
2022-12-03T01:38:17.900Z,101052.34
2022-12-03T01:43:20.189Z,101058.25
2022-12-03T01:48:21.037Z,101062.63
2022-12-03T01:53:21.888Z,101054.75
2022-12-03T01:58:29.838Z,101048.09
2022-12-03T02:03:30.738Z,101046.34
2022-12-03T02:08:33.705Z,101043.03
2022-12-03T02:13:37.147Z,101031.75
2022-12-03T02:18:38.106Z,101033.94
2022-12-03T02:23:47.605Z,101034.41
2022-12-03T02:28:49.930Z,101038.66
2022-12-03T02:33:50.936Z,101036.78
2022-12-03T02:38:52.503Z,101034.44
2022-12-03T02:43:54.683Z,101026.31
2022-12-03T02:48:55.621Z,101024.84
2022-12-03T02:53:57.781Z,101035.13
2022-12-03T02:59:04.298Z,101034.44
2022-12-03T03:04:06.856Z,101033.06
2022-12-03T03:09:07.826Z,101029.00
2022-12-03T03:14:10.059Z,101026.41
2022-12-03T03:19:10.870Z,101032.56
2022-12-03T03:24:11.688Z,101037.69
2022-12-03T03:29:14.023Z,101031.78
2022-12-03T03:34:15.920Z,101027.59
2022-12-03T03:39:16.985Z,101030.91
2022-12-03T03:44:19.192Z,101026.53
2022-12-03T03:49:20.019Z,101024.84
2022-12-03T03:54:21.088Z,101026.44
2022-12-03T03:59:23.292Z,101026.53
2022-12-03T04:04:26.705Z,101015.59
2022-12-03T04:09:27.907Z,101021.53
2022-12-03T04:14:30.057Z,101018.97
2022-12-03T04:19:30.850Z,101016.72
2022-12-03T04:24:31.942Z,101011.56
2022-12-03T04:29:34.165Z,101008.22
2022-12-03T04:34:52.943Z,101009.00
2022-12-03T04:39:53.968Z,101010.41
2022-12-03T04:44:58.372Z,101007.00
2022-12-03T04:49:59.127Z,101014.03
2022-12-03T04:54:59.916Z,101015.59
2022-12-03T05:00:02.071Z,101020.03
2022-12-03T05:05:02.940Z,101013.19
2022-12-03T05:10:03.919Z,101007.22
2022-12-03T05:15:07.431Z,101001.25
2022-12-03T05:20:28.280Z,100995.22
2022-12-03T05:25:29.116Z,100993.41
2022-12-03T05:30:31.495Z,101000.09
2022-12-03T05:35:33.169Z,100984.09
2022-12-03T05:40:34.020Z,100989.41
2022-12-03T05:45:38.508Z,100981.00
2022-12-03T05:50:41.526Z,100987.63
2022-12-03T05:55:48.176Z,100979.97
2022-12-03T06:00:50.337Z,100987.84
2022-12-03T06:05:51.114Z,100990.78
2022-12-03T06:10:52.258Z,100991.97
2022-12-03T06:15:54.464Z,100986.31
2022-12-03T06:20:55.263Z,100981.00
2022-12-03T06:25:56.023Z,100984.50
2022-12-03T06:30:58.216Z,100991.34
2022-12-03T06:35:59.123Z,100991.91
2022-12-03T06:40:59.899Z,100989.53
2022-12-03T06:46:02.093Z,100982.25
2022-12-03T06:51:08.130Z,100985.94
2022-12-03T06:56:09.953Z,100993.81
2022-12-03T07:01:12.162Z,100989.41
2022-12-03T07:06:13.124Z,100991.31
2022-12-03T07:11:27.927Z,100991.44
2022-12-03T07:16:30.486Z,100993.22
2022-12-03T07:21:31.501Z,100990.66
2022-12-03T07:26:32.832Z,100980.78
2022-12-03T07:31:35.060Z,100981.72
2022-12-03T07:36:36.015Z,100981.59
2022-12-03T07:41:36.817Z,100987.81
2022-12-03T07:46:39.004Z,100990.66
2022-12-03T07:51:39.887Z,100990.50
2022-12-03T07:56:40.916Z,100986.94
2022-12-03T08:01:43.184Z,100983.81
2022-12-03T08:06:44.067Z,100986.72
2022-12-03T08:11:46.404Z,100982.09
2022-12-03T08:16:49.309Z,100983.28
2022-12-03T08:21:50.180Z,100983.22
2022-12-03T08:26:51.030Z,100968.41
2022-12-03T08:31:55.226Z,100973.06
2022-12-03T08:36:59.889Z,100970.38
2022-12-03T08:42:27.959Z,100969.56
2022-12-03T08:47:32.379Z,100974.13
2022-12-03T08:52:35.173Z,100979.16
2022-12-03T08:57:36.144Z,100984.09
2022-12-03T09:02:38.343Z,100980.63
2022-12-03T09:07:39.211Z,100985.53
2022-12-03T09:12:40.071Z,100985.53
2022-12-03T09:17:42.426Z,100978.69
2022-12-03T09:22:43.270Z,100979.69
2022-12-03T09:27:44.114Z,100976.53
2022-12-03T09:32:46.282Z,100973.94
2022-12-03T09:37:47.111Z,100974.06
2022-12-03T09:42:48.486Z,100968.03
2022-12-03T09:47:52.309Z,100972.50
2022-12-03T09:52:58.176Z,100975.94
2022-12-03T09:58:01.026Z,100961.41
2022-12-03T10:03:07.192Z,100965.84
2022-12-03T10:08:11.233Z,100959.16
2022-12-03T10:13:14.431Z,100950.44
2022-12-03T10:18:20.276Z,100947.28
2022-12-03T10:23:22.906Z,100948.25
2022-12-03T10:28:34.538Z,100943.84
2022-12-03T10:33:38.640Z,100937.75
2022-12-03T10:38:39.468Z,100936.03
2022-12-03T10:43:40.258Z,100931.63
2022-12-03T10:48:42.408Z,100930.81
2022-12-03T10:53:43.308Z,100932.13
2022-12-03T10:58:44.144Z,100932.81
2022-12-03T11:03:46.858Z,100923.53
2022-12-03T11:08:56.561Z,100930.63
2022-12-03T11:14:00.135Z,100920.34
2022-12-03T11:19:03.778Z,100920.41
2022-12-03T11:24:18.498Z,100911.81
2022-12-03T11:30:03.215Z,100901.34
2022-12-03T11:35:05.490Z,100901.94
2022-12-03T11:40:33.521Z,100888.31
2022-12-03T11:45:39.359Z,100888.50
2022-12-03T11:50:43.476Z,100882.00
2022-12-03T11:55:47.261Z,100879.19
2022-12-03T12:00:53.540Z,100873.69
2022-12-03T12:06:07.147Z,100873.63
2022-12-03T12:11:18.344Z,100871.88
2022-12-03T12:16:51.328Z,100867.34
2022-12-03T12:21:53.675Z,100860.72
2022-12-03T12:26:54.477Z,100857.13
2022-12-03T12:32:00.829Z,100852.03
2022-12-03T12:37:04.099Z,100842.41
2022-12-03T12:42:28.504Z,100838.22
2022-12-03T12:47:32.420Z,100832.09
2022-12-03T12:52:34.641Z,100832.47
2022-12-03T12:57:35.490Z,100813.56
2022-12-03T13:02:42.568Z,100800.78
2022-12-03T13:07:45.981Z,100813.78
2022-12-03T13:12:46.882Z,100818.94
2022-12-03T13:17:47.762Z,100807.72
2022-12-03T13:22:50.001Z,100812.13
2022-12-03T13:27:51.802Z,100802.66
2022-12-03T13:32:52.642Z,100806.06
2022-12-03T13:37:54.879Z,100800.00
2022-12-03T13:42:55.741Z,100810.38
2022-12-03T13:47:59.646Z,100804.38
2022-12-03T13:53:03.389Z,100806.22
2022-12-03T13:58:04.180Z,100804.47
2022-12-03T14:03:05.467Z,100805.31
2022-12-03T14:08:07.738Z,100805.31
2022-12-03T14:13:08.584Z,100798.53
2022-12-03T14:18:09.372Z,100801.06
2022-12-03T14:23:11.520Z,100803.53
2022-12-03T14:28:12.432Z,100798.34
2022-12-03T14:33:13.291Z,100801.72
2022-12-03T14:38:15.445Z,100795.75
2022-12-03T14:43:16.210Z,100794.81
2022-12-03T14:48:17.047Z,100795.44
2022-12-03T14:53:24.103Z,100812.38
2022-12-03T14:58:28.269Z,100800.09
2022-12-03T15:03:29.154Z,100800.69
2022-12-03T15:08:31.419Z,100805.75
2022-12-03T15:13:32.323Z,100805.75
2022-12-03T15:18:34.568Z,100809.19
2022-12-03T15:23:36.866Z,100810.66
2022-12-03T15:28:52.760Z,100810.72
2022-12-03T15:33:59.069Z,100802.09
2022-12-03T15:39:01.874Z,100810.59
2022-12-03T15:44:03.218Z,100804.75
2022-12-03T15:49:03.995Z,100798.28
2022-12-03T15:54:06.504Z,100800.97
2022-12-03T15:59:07.329Z,100794.00
2022-12-03T16:04:08.119Z,100801.91
2022-12-03T16:09:10.445Z,100801.69
2022-12-03T16:14:11.224Z,100800.91
2022-12-03T16:19:12.055Z,100795.28
2022-12-03T16:24:14.230Z,100799.56
2022-12-03T16:29:15.466Z,100799.00
2022-12-03T16:34:16.249Z,100791.00
2022-12-03T16:39:18.576Z,100794.28
2022-12-03T16:44:32.229Z,100795.19
2022-12-03T16:49:32.996Z,100782.28
2022-12-03T16:54:35.152Z,100786.41
2022-12-03T16:59:35.959Z,100780.56
2022-12-03T17:04:37.154Z,100777.31
2022-12-03T17:09:39.746Z,100772.91
2022-12-03T17:14:40.665Z,100781.59
2022-12-03T17:19:41.464Z,100777.97
2022-12-03T17:24:43.625Z,100773.72
2022-12-03T17:29:44.504Z,100766.38
2022-12-03T17:34:45.440Z,100767.19
2022-12-03T17:39:47.593Z,100774.69
2022-12-03T17:44:48.431Z,100766.84
2022-12-03T17:49:49.323Z,100755.88
2022-12-03T18:00:13.382Z,100750.72
2022-12-03T18:05:15.852Z,100749.34
2022-12-03T18:10:18.378Z,100750.91
2022-12-03T18:15:19.180Z,100748.41
2022-12-03T18:20:20.206Z,100746.81
2022-12-03T18:25:22.508Z,100754.41
2022-12-03T18:30:23.770Z,100750.97
2022-12-03T18:35:24.825Z,100750.78
2022-12-03T18:40:27.788Z,100749.19
2022-12-03T18:45:28.621Z,100748.63
2022-12-03T18:50:29.462Z,100744.97
2022-12-03T18:55:35.232Z,100734.88
2022-12-03T19:00:36.346Z,100740.03
2022-12-03T19:05:37.575Z,100731.66
2022-12-03T19:10:39.801Z,100746.03
2022-12-03T19:15:40.671Z,100744.50
2022-12-03T19:20:41.948Z,100747.03
2022-12-03T19:25:54.852Z,100748.75
2022-12-03T19:31:00.437Z,100743.72
2022-12-03T19:36:02.337Z,100749.47
2022-12-03T19:41:07.334Z,100746.38
2022-12-03T19:46:10.477Z,100743.63
2022-12-03T19:51:33.028Z,100750.63
2022-12-03T19:56:33.946Z,100749.53
2022-12-03T20:01:40.414Z,100750.81
2022-12-03T20:06:41.550Z,100748.31
2022-12-03T20:11:44.569Z,100744.06
2022-12-03T20:16:45.830Z,100747.88
2022-12-03T20:21:46.794Z,100746.00
2022-12-03T20:26:48.993Z,100746.63
2022-12-03T20:31:49.951Z,100746.81
2022-12-03T20:36:50.853Z,100747.72
2022-12-03T20:41:53.176Z,100740.13
2022-12-03T20:46:54.127Z,100744.41
2022-12-03T20:51:57.014Z,100739.25
2022-12-03T20:57:00.848Z,100739.31
2022-12-03T21:02:01.911Z,100736.63
2022-12-03T21:07:02.856Z,100733.97
2022-12-03T21:12:05.572Z,100737.16
2022-12-03T21:17:09.109Z,100733.66
2022-12-03T21:22:10.173Z,100723.22
2022-12-03T21:27:15.784Z,100721.78
2022-12-03T21:32:20.783Z,100720.66
2022-12-03T21:37:22.009Z,100722.47
2022-12-03T21:42:35.363Z,100712.13
2022-12-03T21:47:37.802Z,100718.88
2022-12-03T21:52:38.827Z,100728.28
2022-12-03T21:57:40.977Z,100712.84
2022-12-03T22:02:42.117Z,100717.22
2022-12-03T22:07:43.031Z,100724.16
2022-12-03T22:12:45.244Z,100717.22
2022-12-03T22:17:46.088Z,100711.09
2022-12-03T22:22:46.886Z,100714.94
2022-12-03T22:27:49.019Z,100710.66
2022-12-03T22:32:49.874Z,100716.72
2022-12-03T22:37:50.745Z,100716.78
2022-12-03T22:42:52.894Z,100714.81
2022-12-03T22:47:53.665Z,100709.84
2022-12-03T22:52:54.543Z,100701.06
2022-12-03T22:57:56.647Z,100703.81
2022-12-03T23:02:57.484Z,100692.53
2022-12-03T23:07:58.410Z,100687.38
2022-12-03T23:13:00.609Z,100674.50
2022-12-03T23:18:01.450Z,100675.16
2022-12-03T23:23:02.234Z,100669.38
2022-12-03T23:28:04.456Z,100658.22
2022-12-03T23:33:05.895Z,100661.84
2022-12-03T23:38:06.752Z,100660.00
2022-12-03T23:43:08.881Z,100660.81
2022-12-03T23:48:09.687Z,100645.53
2022-12-03T23:53:10.525Z,100659.28
2022-12-03T23:58:12.665Z,100644.81
